Flight Track Log - Related Links

Times and Time Zones

All times are in EDT time to prevent confusion due to time zone crossing. See the SVA1669 flight status page for this flight to view local times or setup timezone preferences in your user account.

Time Position Orientation Groundspeed Altitude Reporting Facility
EDT Latitude Longitude Course Direction KTS MPH feet Rate Location/Type
Mon 04:16:27 PM 24.9500 46.7190 70° East 169 194 2,400  Level FlightAware ADS-B
Mon 04:17:52 PM 24.8740 46.7350 169° South 243 280 4,800 2,317 Climbing FlightAware ADS-B
Mon 04:18:52 PM 24.8130 46.6960 210° Southwest 256 295 8,000 3,247 Climbing FlightAware ADS-B
Mon 04:19:17 PM 24.7900 46.6750 220° Southwest 251 289 9,400 2,053 Climbing FlightAware ADS-B
Mon 04:21:00 PM 24.6383 46.5768 210° Southwest  Level Estimated
Mon 04:22:00 PM 24.5498 46.5196 210° Southwest  Level Estimated
Mon 04:22:02 PM 24.6180 46.5230 210° Southwest 350 403 14,500  Level FlightAware ADS-B
Mon 04:23:12 PM 24.5270 46.4440 218° Southwest 358 412 16,700 1,694 Climbing FlightAware ADS-B
Mon 04:25:00 PM 24.3671 46.3427 210° Southwest  Level Estimated
Mon 04:26:00 PM 24.2783 46.2864 210° Southwest  Level Estimated
Mon 04:26:17 PM 24.2740 46.2220 210° Southwest 389 448 21,700  Level FlightAware ADS-B
Mon 04:26:52 PM 24.2240 46.1780 219° Southwest 395 455 22,500 1,380 Climbing FlightAware ADS-B
Mon 04:27:57 PM 24.1300 46.0970 218° Southwest 393 452 24,000 1,304 Climbing FlightAware ADS-B
Mon 04:28:47 PM 24.0570 46.0330 219° Southwest 400 460 25,000 1,200 Climbing FlightAware ADS-B
Mon 04:30:12 PM 23.9300 45.9230 218° Southwest 415 478 26,700 1,157 Climbing FlightAware ADS-B
Mon 04:31:07 PM 23.8460 45.8510 218° Southwest 412 474 27,700 1,200 Climbing FlightAware ADS-B
Mon 04:31:47 PM 23.7850 45.7980 218° Southwest 416 479 28,600 1,389 Climbing FlightAware ADS-B
Mon 04:32:42 PM 23.7030 45.7270 218° Southwest 413 475 29,900 1,400 Climbing FlightAware ADS-B
Mon 04:33:17 PM 23.6510 45.6820 218° Southwest 412 474 30,700 857 Climbing FlightAware ADS-B
Mon 04:34:27 PM 23.5440 45.5900 218° Southwest 427 491 31,400 900 Climbing FlightAware ADS-B
Mon 04:36:57 PM 23.3130 45.3920 208° Southwest 411 473 34,000 821 Climbing FlightAware ADS-B
Mon 04:37:00 PM 23.3272 45.4652 208° Southwest  Level Estimated
Mon 04:37:37 PM 23.2550 45.3420 218° Southwest 414 476 34,000  Level FlightAware ADS-B
Mon 04:38:57 PM 23.1330 45.2380 218° Southwest 410 472 34,000  Level FlightAware ADS-B
Mon 04:39:37 PM 23.0740 45.1880 218° Southwest 409 471 34,000  Level FlightAware ADS-B
Mon 04:41:27 PM 22.9170 45.0540 218° Southwest 406 467 34,000  Level FlightAware ADS-B
Mon 04:43:52 PM 22.7080 44.8780 218° Southwest 405 466 34,000  Level FlightAware ADS-B
Mon 04:45:32 PM 22.5440 44.7390 218° Southwest 408 470 34,000  Level FlightAware ADS-B
Mon 04:47:02 PM 22.4180 44.6330 218° Southwest 408 470 34,000  Level FlightAware ADS-B
Mon 04:47:52 PM 22.3550 44.5800 218° Southwest 408 470 34,000  Level FlightAware ADS-B
Mon 04:48:32 PM 22.3040 44.5370 218° Southwest 408 470 34,000  Level FlightAware ADS-B
Mon 04:49:12 PM 22.2540 44.4940 219° Southwest 408 470 34,000  Level FlightAware ADS-B
Mon 04:49:52 PM 22.2030 44.4510 218° Southwest 408 470 34,000  Level FlightAware ADS-B
Mon 04:50:32 PM 22.1530 44.4090 218° Southwest 408 470 34,000  Level FlightAware ADS-B
Mon 04:51:22 PM 22.0890 44.3550 218° Southwest 408 470 34,000  Level FlightAware ADS-B
Mon 04:52:02 PM 22.0390 44.3130 218° Southwest 408 470 34,000  Level FlightAware ADS-B
Mon 04:52:42 PM 21.9880 44.2700 218° Southwest 408 470 34,000  Level FlightAware ADS-B
Mon 04:53:22 PM 21.9380 44.2280 218° Southwest 408 470 34,000  Level FlightAware ADS-B
Mon 04:54:02 PM 21.8870 44.1850 218° Southwest 408 470 34,000  Level FlightAware ADS-B
Mon 04:54:52 PM 21.8240 44.1320 218° Southwest 408 470 34,000  Level FlightAware ADS-B
Mon 04:55:32 PM 21.7730 44.0890 218° Southwest 408 470 34,000  Level FlightAware ADS-B
Mon 04:56:12 PM 21.7230 44.0470 218° Southwest 408 470 34,000  Level FlightAware ADS-B
Mon 04:58:00 PM 21.5612 43.9809 201° Southwest  Level Estimated
Mon 04:59:00 PM 21.4713 43.9442 201° Southwest  Level Estimated
Mon 05:00:00 PM 21.3815 43.9076 201° Southwest  Level Estimated
Mon 05:01:00 PM 21.2915 43.8710 201° Southwest  Level Estimated
Mon 05:02:00 PM 21.2016 43.8344 201° Southwest  Level Estimated
Mon 05:03:00 PM 21.1117 43.7979 201° Southwest  Level Estimated
Mon 05:04:00 PM 21.0218 43.7615 201° Southwest  Level Estimated
Mon 05:05:00 PM 20.9319 43.7251 201° Southwest  Level Estimated
Mon 05:06:00 PM 20.8419 43.6887 201° Southwest  Level Estimated
Mon 05:07:00 PM 20.7520 43.6524 201° Southwest  Level Estimated
Mon 05:08:00 PM 20.6620 43.6161 201° Southwest  Level Estimated
Mon 05:09:00 PM 20.5721 43.5799 201° Southwest  Level Estimated
Mon 05:10:00 PM 20.4821 43.5437 201° Southwest  Level Estimated
Mon 05:11:00 PM 20.3921 43.5075 201° Southwest  Level Estimated
Mon 05:12:00 PM 20.3021 43.4714 201° Southwest  Level Estimated
Mon 05:13:00 PM 20.2121 43.4353 201° Southwest  Level Estimated
Mon 05:14:00 PM 20.1221 43.3993 201° Southwest  Level Estimated
Mon 05:15:00 PM 20.0321 43.3633 201° Southwest  Level Estimated
Mon 05:16:00 PM 19.9421 43.3274 201° Southwest  Level Estimated
Mon 05:17:00 PM 19.8521 43.2915 201° Southwest  Level Estimated
Mon 05:18:00 PM 19.7621 43.2556 201° Southwest  Level Estimated
Mon 05:19:00 PM 19.6720 43.2198 201° Southwest  Level Estimated
Mon 05:20:00 PM 19.5820 43.1840 201° Southwest  Level Estimated
Mon 05:21:00 PM 19.4919 43.1483 201° Southwest  Level Estimated
Mon 05:22:00 PM 19.4019 43.1126 201° Southwest  Level Estimated
Mon 05:23:00 PM 19.3118 43.0769 200° South  Level Estimated
Mon 05:24:00 PM 19.2217 43.0413 200° South  Level Estimated
Mon 05:25:00 PM 19.1317 43.0057 200° South  Level Estimated
Mon 05:26:00 PM 19.0416 42.9702 200° South  Level Estimated
Mon 05:27:00 PM 18.9515 42.9347 200° South  Level Estimated
Mon 05:28:00 PM 18.8614 42.8992 200° South  Level Estimated
Mon 05:29:00 PM 18.7713 42.8638 200° South  Level Estimated
Mon 05:30:00 PM 18.6812 42.8284 200° South  Level Estimated
Mon 05:31:00 PM 18.5910 42.7930 200° South  Level Estimated
Mon 05:32:00 PM 18.5009 42.7577 200° South  Level Estimated
Mon 05:33:00 PM 18.4108 42.7225 200° South  Level Estimated
Mon 05:34:00 PM 18.3207 42.6872 200° South  Level Estimated
Mon 05:35:00 PM 18.2401 42.6557 200° South  Level Estimated
Mon 05:36:00 PM 18.2401 42.6557 247° West  Level Estimated
Mon 05:37:00 PM 18.2401 42.6557 247° West  Level Estimated
Mon 05:38:00 PM 18.2401 42.6557 247° West  Level Estimated
Mon 05:39:00 PM 18.2401 42.6557 247° West  Level Estimated
Mon 05:40:00 PM 18.2401 42.6557 247° West  Level Estimated
Mon 05:41:00 PM 18.2401 42.6557 247° West  Level Estimated

Login

Don't have an account? Register now (free) for customized features, flight alerts, and more!